Houstonia, Missouri
Current Conditions -  °F | °C
As of 12:58 PM on Monday 22 Dec 2014 (Local Time) from KSZL Reporting Station
Drizzle Drizzle  
Wind Chill: 40°   Ceiling: 400
Heat Index: 45°   Visibility: 4mi
Dew Point: 44°   Wind: 9mph
Humidity: 96%   Direction: 170°S
Pressure: 29.49"   Gusts: NA
Location:  38.9°N, 93.36°W
Report Text: KSZL 221858Z 17008KT 4SM -DZ BR OVC004 07/07 A2949 RMK AO2A RAB1808E1839DZE1808B1839 SLP991 P0001 T00710065 $
Loading
Personal Weather Stations






























Interactive Weather Map New forecast layout! Learn more

10-Day Weather Forecast

Advertisements
Track Severe Weather on mobile